createdAt,value
2023-04-02T00:00:35.524Z,1000.86
2023-04-02T00:01:35.058Z,1000.99
2023-04-02T00:02:36.119Z,1000.97
2023-04-02T00:03:35.620Z,1001.00
2023-04-02T00:04:35.623Z,1001.03
2023-04-02T00:05:36.318Z,1001.00
2023-04-02T00:06:38.481Z,1001.00
2023-04-02T00:07:37.478Z,1001.09
2023-04-02T00:08:36.377Z,1001.08
2023-04-02T00:09:38.480Z,1001.10
2023-04-02T00:10:36.745Z,1001.14
2023-04-02T00:11:37.484Z,1001.19
2023-04-02T00:12:37.149Z,1001.15
2023-04-02T00:13:37.360Z,1001.20
2023-04-02T00:14:37.559Z,1001.34
2023-04-02T00:15:38.486Z,1001.22
2023-04-02T00:16:39.493Z,1001.36
2023-04-02T00:17:38.029Z,1001.42
2023-04-02T00:18:38.543Z,1001.41
2023-04-02T00:19:38.354Z,1001.36
2023-04-02T00:20:38.560Z,1001.45
2023-04-02T00:21:39.938Z,1001.48
2023-04-02T00:22:39.894Z,1001.50
2023-04-02T00:23:39.037Z,1001.59
2023-04-02T00:24:39.213Z,1001.57
2023-04-02T00:25:39.418Z,1001.65
2023-04-02T00:26:40.523Z,1001.67
2023-04-02T00:27:41.500Z,1001.63
2023-04-02T00:28:40.538Z,1001.64
2023-04-02T00:29:41.047Z,1001.72
2023-04-02T00:30:40.446Z,1001.72
2023-04-02T00:31:40.644Z,1001.76
2023-04-02T00:32:41.498Z,1001.76
2023-04-02T00:33:40.899Z,1001.78
2023-04-02T00:34:42.485Z,1001.82
2023-04-02T00:35:41.342Z,1001.81
2023-04-02T00:36:41.949Z,1001.84
2023-04-02T00:37:42.626Z,1001.87
2023-04-02T00:38:42.038Z,1001.83
2023-04-02T00:39:42.486Z,1002.00
2023-04-02T00:40:42.126Z,1002.07
2023-04-02T00:41:43.485Z,1002.02
2023-04-02T00:42:42.500Z,1002.06
2023-04-02T00:43:43.989Z,1002.08
2023-04-02T00:44:43.509Z,1002.12
2023-04-02T00:45:44.002Z,1002.15
2023-04-02T00:46:44.992Z,1002.11
2023-04-02T00:47:43.390Z,1002.16
2023-04-02T00:48:45.487Z,1002.17
2023-04-02T00:49:44.496Z,1002.16
2023-04-02T00:50:43.873Z,1002.20
2023-04-02T00:51:44.027Z,1002.20
2023-04-02T00:52:44.182Z,1002.24
2023-04-02T00:53:44.338Z,1002.28
2023-04-02T00:54:44.504Z,1002.33
2023-04-02T00:55:47.359Z,1002.39
2023-04-02T00:56:45.047Z,1002.33
2023-04-02T00:57:44.984Z,1002.45
2023-04-02T00:58:46.500Z,1002.45
2023-04-02T00:59:45.440Z,1002.45
2023-04-02T01:00:46.537Z,1002.47
2023-04-02T01:01:45.902Z,1002.54
2023-04-02T01:02:46.606Z,1002.51
2023-04-02T01:03:47.068Z,1002.62
2023-04-02T01:04:46.993Z,1002.54
2023-04-02T01:05:46.535Z,1002.60
2023-04-02T01:06:46.715Z,1002.66
2023-04-02T01:07:48.499Z,1002.65
2023-04-02T01:08:48.996Z,1002.74
2023-04-02T01:09:48.035Z,1002.71
2023-04-02T01:10:47.529Z,1002.68
2023-04-02T01:11:47.718Z,1002.75
2023-04-02T01:12:48.567Z,1002.77
2023-04-02T01:13:49.002Z,1002.79
2023-04-02T01:14:49.250Z,1002.76
2023-04-02T01:15:49.090Z,1002.74
2023-04-02T01:16:49.495Z,1002.85
2023-04-02T01:17:48.969Z,1002.80
2023-04-02T01:18:48.874Z,1002.74
2023-04-02T01:19:50.005Z,1002.78
2023-04-02T01:20:49.180Z,1002.81
2023-04-02T01:21:49.352Z,1002.83
2023-04-02T01:22:50.065Z,1002.80
2023-04-02T01:23:49.935Z,1002.84
2023-04-02T01:24:49.991Z,1002.91
2023-04-02T01:25:50.995Z,1002.94
2023-04-02T01:26:50.288Z,1002.99
2023-04-02T01:27:50.489Z,1002.91
2023-04-02T01:28:50.684Z,1002.98
2023-04-02T01:29:50.878Z,1003.07
2023-04-02T01:30:51.086Z,1003.05
2023-04-02T01:31:52.128Z,1003.08
2023-04-02T01:32:52.067Z,1003.07
2023-04-02T01:33:51.607Z,1003.06
2023-04-02T01:34:51.795Z,1003.12
2023-04-02T01:35:52.073Z,1003.15
2023-04-02T01:36:52.125Z,1003.20
2023-04-02T01:37:52.875Z,1003.23
2023-04-02T01:38:52.539Z,1003.14
2023-04-02T01:39:53.372Z,1003.30
2023-04-02T01:40:53.995Z,1003.32
2023-04-02T01:41:54.506Z,1003.29
2023-04-02T01:42:53.148Z,1003.41
2023-04-02T01:43:53.326Z,1003.37
2023-04-02T01:44:53.542Z,1003.36
2023-04-02T01:45:53.717Z,1003.49
2023-04-02T01:46:53.988Z,1003.48
2023-04-02T01:47:54.163Z,1003.45
2023-04-02T01:48:54.233Z,1003.54
2023-04-02T01:49:54.992Z,1003.52
2023-04-02T01:50:54.655Z,1003.60
2023-04-02T01:51:54.843Z,1003.62
2023-04-02T01:52:55.564Z,1003.60
2023-04-02T01:53:55.205Z,1003.67
2023-04-02T01:54:55.368Z,1003.68
2023-04-02T01:55:55.542Z,1003.73
2023-04-02T01:56:56.064Z,1003.75
2023-04-02T01:57:55.891Z,1003.67
2023-04-02T01:58:56.058Z,1003.68
2023-04-02T01:59:56.239Z,1003.73
2023-04-02T02:00:56.445Z,1003.74
2023-04-02T02:01:56.663Z,1003.83
2023-04-02T02:02:56.882Z,1003.76
2023-04-02T02:03:57.992Z,1003.77
2023-04-02T02:04:57.125Z,1003.85
2023-04-02T02:05:57.305Z,1003.77
2023-04-02T02:06:57.485Z,1003.83
2023-04-02T02:07:57.652Z,1003.90
2023-04-02T02:08:57.811Z,1003.84
2023-04-02T02:09:58.538Z,1003.91
2023-04-02T02:10:58.232Z,1003.90
2023-04-02T02:11:58.401Z,1003.96
2023-04-02T02:13:00.013Z,1003.99
2023-04-02T02:13:58.781Z,1004.01
2023-04-02T02:14:58.946Z,1004.07
2023-04-02T02:15:59.596Z,1004.07
2023-04-02T02:17:00.085Z,1004.05
2023-04-02T02:17:59.534Z,1004.06
2023-04-02T02:19:01.510Z,1004.17
2023-04-02T02:19:59.741Z,1004.16
2023-04-02T02:21:00.088Z,1004.13
2023-04-02T02:22:00.130Z,1004.14
2023-04-02T02:23:00.267Z,1004.13
2023-04-02T02:24:00.447Z,1004.15
2023-04-02T02:25:01.370Z,1004.21
2023-04-02T02:26:01.062Z,1004.24
2023-04-02T02:27:00.960Z,1004.21
2023-04-02T02:28:01.112Z,1004.30
2023-04-02T02:29:02.007Z,1004.33
2023-04-02T02:30:02.054Z,1004.43
2023-04-02T02:31:02.060Z,1004.37
2023-04-02T02:32:02.579Z,1004.43
2023-04-02T02:33:02.304Z,1004.41
2023-04-02T02:34:03.048Z,1004.38
2023-04-02T02:35:05.374Z,1004.48
2023-04-02T02:36:03.099Z,1004.49
2023-04-02T02:37:03.072Z,1004.60
2023-04-02T02:38:03.583Z,1004.62
2023-04-02T02:39:03.224Z,1004.53
2023-04-02T02:40:04.058Z,1004.59
2023-04-02T02:41:03.615Z,1004.63
2023-04-02T02:42:04.513Z,1004.69
2023-04-02T02:43:05.522Z,1004.73
2023-04-02T02:44:04.067Z,1004.65
2023-04-02T02:45:05.006Z,1004.67
2023-04-02T02:46:04.437Z,1004.68
2023-04-02T02:47:05.551Z,1004.76
2023-04-02T02:48:04.826Z,1004.79
2023-04-02T02:49:05.002Z,1004.80
2023-04-02T02:50:05.602Z,1004.73
2023-04-02T02:51:05.346Z,1004.79
2023-04-02T02:52:06.044Z,1004.84
2023-04-02T02:53:07.444Z,1004.82
2023-04-02T02:54:05.934Z,1004.86
2023-04-02T02:55:06.557Z,1004.98
2023-04-02T02:56:06.294Z,1004.93
2023-04-02T02:57:06.447Z,1004.94
2023-04-02T02:58:08.507Z,1004.93
2023-04-02T02:59:07.512Z,1004.92
2023-04-02T03:00:07.025Z,1004.92
2023-04-02T03:01:07.182Z,1005.01
2023-04-02T03:02:07.502Z,1004.98
2023-04-02T03:03:08.682Z,1004.99
2023-04-02T03:04:08.808Z,1005.11
2023-04-02T03:05:09.019Z,1005.11
2023-04-02T03:06:08.139Z,1005.10
2023-04-02T03:07:09.014Z,1005.18
2023-04-02T03:08:08.523Z,1005.13
2023-04-02T03:09:08.689Z,1005.20
2023-04-02T03:10:10.012Z,1005.33
2023-04-02T03:11:09.032Z,1005.26
2023-04-02T03:12:09.878Z,1005.39
2023-04-02T03:13:09.461Z,1005.39
2023-04-02T03:14:09.521Z,1005.34
2023-04-02T03:15:10.510Z,1005.38
2023-04-02T03:16:10.423Z,1005.43
2023-04-02T03:17:10.063Z,1005.44
2023-04-02T03:18:10.276Z,1005.49
2023-04-02T03:19:10.443Z,1005.51
2023-04-02T03:20:10.634Z,1005.52
2023-04-02T03:21:10.785Z,1005.60
2023-04-02T03:22:11.510Z,1005.56
2023-04-02T03:23:11.204Z,1005.58
2023-04-02T03:24:11.391Z,1005.64
2023-04-02T03:25:11.590Z,1005.59
2023-04-02T03:26:11.799Z,1005.65
2023-04-02T03:27:12.076Z,1005.71
2023-04-02T03:28:13.054Z,1005.84
2023-04-02T03:29:13.024Z,1005.77
2023-04-02T03:30:12.569Z,1005.82
2023-04-02T03:31:12.783Z,1005.84
2023-04-02T03:32:12.866Z,1005.86
2023-04-02T03:33:13.011Z,1005.94
2023-04-02T03:34:14.192Z,1005.97
2023-04-02T03:35:13.331Z,1005.95
2023-04-02T03:36:13.546Z,1006.04
2023-04-02T03:37:13.719Z,1005.98
2023-04-02T03:38:14.568Z,1005.98
2023-04-02T03:39:14.597Z,1006.01
2023-04-02T03:40:14.241Z,1006.01
2023-04-02T03:41:14.358Z,1005.98
2023-04-02T03:42:15.057Z,1006.05
2023-04-02T03:43:15.524Z,1006.09
2023-04-02T03:44:14.920Z,1006.02
2023-04-02T03:45:16.042Z,1006.06
2023-04-02T03:46:16.094Z,1006.18
2023-04-02T03:47:15.470Z,1006.09
2023-04-02T03:48:15.599Z,1006.15
2023-04-02T03:49:16.564Z,1006.12
2023-04-02T03:50:17.029Z,1006.10
2023-04-02T03:51:17.526Z,1006.19
2023-04-02T03:52:17.281Z,1006.25
2023-04-02T03:53:17.027Z,1006.22
2023-04-02T03:54:16.527Z,1006.25
2023-04-02T03:55:17.532Z,1006.27
2023-04-02T03:56:18.031Z,1006.36
2023-04-02T03:57:17.610Z,1006.40
2023-04-02T03:58:18.026Z,1006.36
2023-04-02T03:59:17.360Z,1006.40
2023-04-02T04:00:17.497Z,1006.44
2023-04-02T04:01:17.660Z,1006.46
2023-04-02T04:02:18.582Z,1006.43
2023-04-02T04:03:18.574Z,1006.54
2023-04-02T04:04:19.040Z,1006.53
2023-04-02T04:05:18.323Z,1006.49
2023-04-02T04:06:21.333Z,1006.60
2023-04-02T04:07:19.590Z,1006.59
2023-04-02T04:08:19.524Z,1006.61
2023-04-02T04:09:19.564Z,1006.64
2023-04-02T04:10:19.564Z,1006.70
2023-04-02T04:11:19.258Z,1006.64
2023-04-02T04:12:20.529Z,1006.73
2023-04-02T04:13:20.584Z,1006.70
2023-04-02T04:14:19.858Z,1006.76
2023-04-02T04:15:21.543Z,1006.80
2023-04-02T04:16:21.100Z,1006.75
2023-04-02T04:17:20.372Z,1006.79
2023-04-02T04:18:20.527Z,1006.85
2023-04-02T04:19:21.580Z,1006.81
2023-04-02T04:20:20.828Z,1006.90
2023-04-02T04:21:21.082Z,1006.86
2023-04-02T04:22:23.030Z,1006.89
2023-04-02T04:23:21.582Z,1007.02
2023-04-02T04:24:22.575Z,1006.93
2023-04-02T04:25:23.533Z,1007.03
2023-04-02T04:26:22.596Z,1006.88
2023-04-02T04:27:24.535Z,1007.04
2023-04-02T04:28:22.418Z,1007.00
2023-04-02T04:29:22.617Z,1007.03
2023-04-02T04:30:22.776Z,1007.04
2023-04-02T04:31:25.776Z,1007.07
2023-04-02T04:32:25.095Z,1007.02
2023-04-02T04:33:23.318Z,1007.12
2023-04-02T04:34:23.385Z,1007.15
2023-04-02T04:35:23.558Z,1007.20
2023-04-02T04:36:25.405Z,1007.17
2023-04-02T04:37:23.896Z,1007.18
2023-04-02T04:38:25.044Z,1007.19
2023-04-02T04:39:25.539Z,1007.23
2023-04-02T04:40:24.429Z,1007.25
2023-04-02T04:41:24.607Z,1007.29
2023-04-02T04:42:24.801Z,1007.35
2023-04-02T04:43:24.996Z,1007.37
2023-04-02T04:44:26.041Z,1007.45
2023-04-02T04:45:26.038Z,1007.38
2023-04-02T04:46:25.673Z,1007.44
2023-04-02T04:47:25.750Z,1007.50
2023-04-02T04:48:25.927Z,1007.51
2023-04-02T04:49:26.902Z,1007.58
2023-04-02T04:50:27.037Z,1007.45
2023-04-02T04:51:26.586Z,1007.59
2023-04-02T04:52:26.618Z,1007.68
2023-04-02T04:53:27.095Z,1007.72
2023-04-02T04:54:27.563Z,1007.75
2023-04-02T04:55:27.095Z,1007.75
2023-04-02T04:56:27.290Z,1007.76
2023-04-02T04:57:28.132Z,1007.78
2023-04-02T04:58:27.703Z,1007.81
2023-04-02T04:59:27.900Z,1007.75
2023-04-02T05:00:28.074Z,1007.91
2023-04-02T05:01:28.320Z,1007.93
2023-04-02T05:02:28.360Z,1007.99
2023-04-02T05:03:28.577Z,1007.99
2023-04-02T05:04:29.589Z,1007.99
2023-04-02T05:05:29.580Z,1008.00
2023-04-02T05:06:31.539Z,1008.04
2023-04-02T05:07:29.259Z,1008.04
2023-04-02T05:08:29.453Z,1008.13
2023-04-02T05:09:30.575Z,1008.17
2023-04-02T05:10:30.107Z,1008.24
2023-04-02T05:11:29.997Z,1008.24
2023-04-02T05:12:30.148Z,1008.31
2023-04-02T05:13:30.324Z,1008.35
2023-04-02T05:14:31.184Z,1008.34
2023-04-02T05:15:30.741Z,1008.33
2023-04-02T05:16:32.111Z,1008.38
2023-04-02T05:17:31.112Z,1008.45
2023-04-02T05:18:31.900Z,1008.45
2023-04-02T05:19:31.390Z,1008.46
2023-04-02T05:20:32.043Z,1008.55
2023-04-02T05:21:32.539Z,1008.60
2023-04-02T05:22:32.583Z,1008.59
2023-04-02T05:23:32.066Z,1008.64
2023-04-02T05:24:32.200Z,1008.64
2023-04-02T05:25:33.264Z,1008.64
2023-04-02T05:26:34.118Z,1008.75
2023-04-02T05:27:33.585Z,1008.69
2023-04-02T05:28:32.846Z,1008.77
2023-04-02T05:29:33.003Z,1008.75
2023-04-02T05:30:33.173Z,1008.85
2023-04-02T05:31:33.628Z,1008.80
2023-04-02T05:32:33.574Z,1008.85
2023-04-02T05:33:33.749Z,1008.87
2023-04-02T05:34:34.002Z,1008.93
2023-04-02T05:35:34.742Z,1008.92
2023-04-02T05:36:35.049Z,1008.95
2023-04-02T05:37:34.409Z,1009.00
2023-04-02T05:38:34.676Z,1009.02
2023-04-02T05:39:36.418Z,1009.09
2023-04-02T05:40:34.938Z,1009.09
2023-04-02T05:41:35.091Z,1009.06
2023-04-02T05:42:35.219Z,1009.19
2023-04-02T05:43:36.091Z,1009.10
2023-04-02T05:44:37.295Z,1009.14
2023-04-02T05:45:36.812Z,1009.20
2023-04-02T05:46:35.978Z,1009.24
2023-04-02T05:47:36.116Z,1009.25
2023-04-02T05:48:36.270Z,1009.29
2023-04-02T05:49:37.087Z,1009.27
2023-04-02T05:50:36.558Z,1009.31
2023-04-02T05:51:36.713Z,1009.34
2023-04-02T05:52:36.845Z,1009.31
2023-04-02T05:53:36.999Z,1009.37
2023-04-02T05:54:37.151Z,1009.40
2023-04-02T05:55:38.050Z,1009.39
2023-04-02T05:56:38.419Z,1009.44
2023-04-02T05:58:38.740Z,1009.45
2023-04-02T05:59:37.873Z,1009.50
2023-04-02T06:00:38.587Z,1009.51
2023-04-02T06:01:38.287Z,1009.43
2023-04-02T06:02:38.679Z,1009.50
2023-04-02T06:03:39.203Z,1009.50
2023-04-02T06:04:38.684Z,1009.57
2023-04-02T06:05:39.544Z,1009.57
2023-04-02T06:06:39.075Z,1009.48
2023-04-02T06:07:39.287Z,1009.48
2023-04-02T06:08:40.549Z,1009.67
2023-04-02T06:09:39.704Z,1009.52
2023-04-02T06:10:40.616Z,1009.67
2023-04-02T06:11:41.085Z,1009.66
2023-04-02T06:12:40.642Z,1009.66
2023-04-02T06:13:41.564Z,1009.61
2023-04-02T06:14:41.548Z,1009.72
2023-04-02T06:15:40.927Z,1009.78
2023-04-02T06:16:43.618Z,1009.78
2023-04-02T06:17:42.065Z,1009.76
2023-04-02T06:18:42.097Z,1009.75
2023-04-02T06:19:41.601Z,1009.87
2023-04-02T06:20:44.055Z,1009.81
2023-04-02T06:21:42.594Z,1009.86
2023-04-02T06:22:42.153Z,1009.89
2023-04-02T06:23:42.329Z,1009.91
2023-04-02T06:24:42.476Z,1009.98
2023-04-02T06:25:42.627Z,1009.95
2023-04-02T06:26:44.586Z,1009.96
2023-04-02T06:27:43.006Z,1010.02
2023-04-02T06:28:43.205Z,1010.14
2023-04-02T06:29:43.397Z,1010.10
2023-04-02T06:30:43.610Z,1010.15
2023-04-02T06:31:43.787Z,1010.11
2023-04-02T06:32:44.039Z,1010.10
2023-04-02T06:33:44.131Z,1010.20
2023-04-02T06:34:44.308Z,1010.22
2023-04-02T06:35:44.505Z,1010.23
2023-04-02T06:36:44.693Z,1010.25
2023-04-02T06:37:44.866Z,1010.26
2023-04-02T06:38:45.604Z,1010.30
2023-04-02T06:39:45.928Z,1010.26
2023-04-02T06:40:45.986Z,1010.26
2023-04-02T06:41:45.620Z,1010.30
2023-04-02T06:42:46.615Z,1010.28
2023-04-02T06:43:45.924Z,1010.31
2023-04-02T06:44:46.112Z,1010.31
2023-04-02T06:45:46.328Z,1010.30
2023-04-02T06:46:46.409Z,1010.36
2023-04-02T06:47:46.607Z,1010.36
2023-04-02T06:48:47.556Z,1010.39
2023-04-02T06:49:46.975Z,1010.44
2023-04-02T06:50:47.185Z,1010.43
2023-04-02T06:51:48.063Z,1010.47
2023-04-02T06:52:47.475Z,1010.41
2023-04-02T06:53:47.633Z,1010.50
2023-04-02T06:54:47.884Z,1010.55
2023-04-02T06:55:48.599Z,1010.51
2023-04-02T06:56:49.112Z,1010.53
2023-04-02T06:57:49.566Z,1010.62
2023-04-02T06:58:49.068Z,1010.64
2023-04-02T06:59:48.570Z,1010.64
2023-04-02T07:00:48.783Z,1010.73
2023-04-02T07:01:49.069Z,1010.78
2023-04-02T07:02:50.136Z,1010.74
2023-04-02T07:03:49.298Z,1010.81
2023-04-02T07:04:49.553Z,1010.84
2023-04-02T07:05:49.619Z,1010.79
2023-04-02T07:06:49.832Z,1010.87
2023-04-02T07:07:50.034Z,1010.91
2023-04-02T07:08:50.212Z,1010.87
2023-04-02T07:09:50.409Z,1010.88
2023-04-02T07:10:50.605Z,1010.80
2023-04-02T07:11:50.775Z,1010.81
2023-04-02T07:12:50.939Z,1010.94
2023-04-02T07:13:51.132Z,1010.94
2023-04-02T07:14:51.282Z,1011.02
2023-04-02T07:15:51.539Z,1011.10
2023-04-02T07:16:51.724Z,1011.03
2023-04-02T07:17:54.562Z,1011.14
2023-04-02T07:18:53.071Z,1011.07
2023-04-02T07:19:52.219Z,1011.21
2023-04-02T07:20:52.382Z,1011.19
2023-04-02T07:21:52.644Z,1011.13
2023-04-02T07:22:52.705Z,1011.13
2023-04-02T07:23:52.887Z,1011.20
2023-04-02T07:24:53.622Z,1011.18
2023-04-02T07:25:53.301Z,1011.27
2023-04-02T07:26:53.525Z,1011.26
2023-04-02T07:27:54.141Z,1011.24
2023-04-02T07:28:54.569Z,1011.35
2023-04-02T07:29:54.119Z,1011.40
2023-04-02T07:30:55.122Z,1011.37
2023-04-02T07:31:55.093Z,1011.48
2023-04-02T07:32:54.729Z,1011.44
2023-04-02T07:33:54.859Z,1011.52
2023-04-02T07:34:55.098Z,1011.49
2023-04-02T07:35:55.335Z,1011.63
2023-04-02T07:36:56.100Z,1011.54
2023-04-02T07:37:56.604Z,1011.62
2023-04-02T07:38:55.910Z,1011.56
2023-04-02T07:39:56.083Z,1011.67
2023-04-02T07:40:56.621Z,1011.61
2023-04-02T07:41:56.418Z,1011.69
2023-04-02T07:42:56.607Z,1011.70
2023-04-02T07:43:56.774Z,1011.75
2023-04-02T07:44:58.576Z,1011.73
2023-04-02T07:45:57.121Z,1011.77
2023-04-02T07:46:57.323Z,1011.83
2023-04-02T07:47:57.533Z,1011.77
2023-04-02T07:48:57.644Z,1011.78
2023-04-02T07:49:57.808Z,1011.74
2023-04-02T07:50:58.151Z,1011.91
2023-04-02T07:51:58.195Z,1011.84
2023-04-02T07:52:58.355Z,1011.94
2023-04-02T07:53:58.502Z,1011.85
2023-04-02T07:54:58.657Z,1011.83
2023-04-02T07:55:58.814Z,1011.87
2023-04-02T07:56:59.071Z,1011.99
2023-04-02T07:57:59.137Z,1011.92
2023-04-02T07:59:00.124Z,1011.94
2023-04-02T08:00:00.158Z,1012.03
2023-04-02T08:01:01.098Z,1011.98
2023-04-02T08:02:00.212Z,1011.98
2023-04-02T08:03:00.700Z,1012.08
2023-04-02T08:04:01.199Z,1012.04
2023-04-02T08:05:01.066Z,1012.10
2023-04-02T08:06:00.697Z,1012.04
2023-04-02T08:07:01.572Z,1012.10
2023-04-02T08:08:01.107Z,1012.15
2023-04-02T08:09:01.932Z,1012.03
2023-04-02T08:10:01.454Z,1012.09
2023-04-02T08:11:02.105Z,1012.09
2023-04-02T08:12:02.608Z,1012.19
2023-04-02T08:13:02.626Z,1012.20
2023-04-02T08:14:02.606Z,1012.22
2023-04-02T08:15:02.628Z,1012.19
2023-04-02T08:16:02.376Z,1012.20
2023-04-02T08:17:02.640Z,1012.22
2023-04-02T08:18:03.658Z,1012.23
2023-04-02T08:19:03.574Z,1012.38
2023-04-02T08:20:03.339Z,1012.28
2023-04-02T08:21:03.315Z,1012.32
2023-04-02T08:22:03.554Z,1012.42
2023-04-02T08:23:04.649Z,1012.33
2023-04-02T08:24:04.620Z,1012.37
2023-04-02T08:25:04.131Z,1012.43
2023-04-02T08:26:04.294Z,1012.42
2023-04-02T08:27:04.458Z,1012.44
2023-04-02T08:28:04.636Z,1012.40
2023-04-02T08:29:04.825Z,1012.47
2023-04-02T08:30:05.577Z,1012.52
2023-04-02T08:31:06.299Z,1012.54
2023-04-02T08:32:05.467Z,1012.52
2023-04-02T08:33:05.681Z,1012.56
2023-04-02T08:34:05.808Z,1012.58
2023-04-02T08:35:05.990Z,1012.70
2023-04-02T08:36:06.237Z,1012.59
2023-04-02T08:37:06.347Z,1012.65
2023-04-02T08:38:07.133Z,1012.63
2023-04-02T08:39:06.653Z,1012.68
2023-04-02T08:40:06.816Z,1012.64
2023-04-02T08:41:07.000Z,1012.72
2023-04-02T08:42:07.944Z,1012.65
2023-04-02T08:43:08.109Z,1012.67
2023-04-02T08:44:08.475Z,1012.87
2023-04-02T08:45:20.860Z,1012.78
2023-04-02T08:46:09.963Z,1012.72
2023-04-02T08:47:07.975Z,1012.78
2023-04-02T08:48:09.175Z,1012.80
2023-04-02T08:49:08.650Z,1012.78
2023-04-02T08:50:08.561Z,1012.77
2023-04-02T08:51:08.719Z,1012.74
2023-04-02T08:52:08.891Z,1012.73
2023-04-02T08:53:08.991Z,1012.86
2023-04-02T08:54:10.217Z,1012.83
2023-04-02T08:55:10.137Z,1012.78
2023-04-02T08:56:10.627Z,1012.76
2023-04-02T08:57:11.147Z,1012.83
2023-04-02T08:58:10.007Z,1012.79
2023-04-02T08:59:11.084Z,1012.81
2023-04-02T09:00:10.324Z,1012.85
2023-04-02T09:01:12.132Z,1012.90
2023-04-02T09:02:10.609Z,1012.79
2023-04-02T09:03:11.655Z,1012.86
2023-04-02T09:04:10.917Z,1012.91
2023-04-02T09:05:11.105Z,1012.86
2023-04-02T09:06:12.224Z,1012.88
2023-04-02T09:07:12.081Z,1012.97
2023-04-02T09:08:12.166Z,1012.87
2023-04-02T09:09:11.811Z,1012.96
2023-04-02T09:10:12.582Z,1012.88
2023-04-02T09:11:12.129Z,1012.95
2023-04-02T09:12:13.125Z,1012.88
2023-04-02T09:13:12.647Z,1012.95
2023-04-02T09:14:12.679Z,1012.97
2023-04-02T09:15:13.446Z,1012.95
2023-04-02T09:16:13.198Z,1013.02
2023-04-02T09:17:13.080Z,1013.04
2023-04-02T09:18:13.293Z,1012.96
2023-04-02T09:19:13.485Z,1012.99
2023-04-02T09:20:14.135Z,1013.03
2023-04-02T09:21:14.584Z,1013.03
2023-04-02T09:22:13.964Z,1013.11
2023-04-02T09:23:14.083Z,1013.14
2023-04-02T09:24:14.247Z,1013.22
2023-04-02T09:25:14.669Z,1013.15
2023-04-02T09:26:14.587Z,1013.20
2023-04-02T09:27:14.803Z,1013.13
2023-04-02T09:28:15.153Z,1013.25
2023-04-02T09:29:15.676Z,1013.20
2023-04-02T09:30:16.193Z,1013.18
2023-04-02T09:31:17.149Z,1013.25
2023-04-02T09:32:17.084Z,1013.21
2023-04-02T09:33:18.459Z,1013.27
2023-04-02T09:34:16.032Z,1013.26
2023-04-02T09:35:25.411Z,1013.24
2023-04-02T09:36:18.377Z,1013.29
2023-04-02T09:37:17.145Z,1013.32
2023-04-02T09:38:16.852Z,1013.29
2023-04-02T09:39:17.637Z,1013.27
2023-04-02T09:40:17.645Z,1013.29
2023-04-02T09:41:17.645Z,1013.44
2023-04-02T09:42:17.459Z,1013.42
2023-04-02T09:43:18.145Z,1013.26
2023-04-02T09:44:17.830Z,1013.34
2023-04-02T09:45:19.619Z,1013.45
2023-04-02T09:46:18.741Z,1013.32
2023-04-02T09:47:18.352Z,1013.42
2023-04-02T09:48:19.144Z,1013.42
2023-04-02T09:49:18.691Z,1013.39
2023-04-02T09:50:19.632Z,1013.38
2023-04-02T09:51:19.051Z,1013.42
2023-04-02T09:52:20.151Z,1013.42
2023-04-02T09:53:20.133Z,1013.57
2023-04-02T09:54:19.540Z,1013.48
2023-04-02T09:55:19.719Z,1013.44
2023-04-02T09:56:20.205Z,1013.43
2023-04-02T09:57:20.193Z,1013.46
2023-04-02T09:58:21.151Z,1013.54
2023-04-02T09:59:20.480Z,1013.44
2023-04-02T10:00:31.494Z,1013.50
2023-04-02T10:01:22.844Z,1013.56
2023-04-02T10:02:21.634Z,1013.52
2023-04-02T10:03:21.166Z,1013.61
2023-04-02T10:04:23.895Z,1013.55
2023-04-02T10:05:30.053Z,1013.56
2023-04-02T10:06:24.644Z,1013.58
2023-04-02T10:07:22.176Z,1013.61
2023-04-02T10:08:22.651Z,1013.61
2023-04-02T10:09:23.160Z,1013.63
2023-04-02T10:10:26.350Z,1013.66
2023-04-02T10:11:28.845Z,1013.69
2023-04-02T10:12:25.035Z,1013.67
2023-04-02T10:13:24.170Z,1013.70
2023-04-02T10:14:23.351Z,1013.67
2023-04-02T10:15:23.573Z,1013.79
2023-04-02T10:16:25.651Z,1013.80
2023-04-02T10:17:24.892Z,1013.76
2023-04-02T10:18:25.595Z,1013.73
2023-04-02T10:19:25.152Z,1013.75
2023-04-02T10:20:25.112Z,1013.79
2023-04-02T10:21:24.650Z,1013.74
2023-04-02T10:22:24.812Z,1013.66
2023-04-02T10:23:25.611Z,1013.74
2023-04-02T10:24:25.173Z,1013.84
2023-04-02T10:25:25.342Z,1013.85
2023-04-02T10:26:25.537Z,1013.84
2023-04-02T10:27:25.719Z,1013.86
2023-04-02T10:28:25.896Z,1013.87
2023-04-02T10:29:26.093Z,1013.92
2023-04-02T10:30:26.251Z,1013.84
2023-04-02T10:31:28.058Z,1013.89
2023-04-02T10:32:26.604Z,1013.91
2023-04-02T10:33:26.783Z,1013.86
2023-04-02T10:34:26.989Z,1013.89
2023-04-02T10:35:27.165Z,1013.87
2023-04-02T10:36:27.339Z,1013.95
2023-04-02T10:37:27.545Z,1013.95
2023-04-02T10:38:27.730Z,1013.99
2023-04-02T10:39:27.917Z,1013.89
2023-04-02T10:40:28.125Z,1013.88
2023-04-02T10:41:28.300Z,1013.97
2023-04-02T10:42:28.481Z,1014.00
2023-04-02T10:43:30.100Z,1014.01
2023-04-02T10:44:30.462Z,1014.07
2023-04-02T10:45:29.603Z,1013.97
2023-04-02T10:46:29.317Z,1013.99
2023-04-02T10:47:29.478Z,1014.02
2023-04-02T10:48:29.667Z,1013.99
2023-04-02T10:49:30.475Z,1013.98
2023-04-02T10:50:31.113Z,1013.94
2023-04-02T10:51:30.077Z,1013.97
2023-04-02T10:52:31.172Z,1013.89
2023-04-02T10:53:30.465Z,1013.94
2023-04-02T10:54:30.628Z,1013.97
2023-04-02T10:55:32.658Z,1014.07
2023-04-02T10:56:40.805Z,1014.04
2023-04-02T10:57:35.236Z,1013.94
2023-04-02T10:58:32.148Z,1013.93
2023-04-02T10:59:31.406Z,1014.06
2023-04-02T11:00:32.594Z,1013.91
2023-04-02T11:01:32.208Z,1013.86
2023-04-02T11:02:32.040Z,1013.92
2023-04-02T11:03:32.133Z,1013.90
2023-04-02T11:04:32.273Z,1013.96
2023-04-02T11:05:32.473Z,1013.86
2023-04-02T11:06:32.696Z,1013.99
2023-04-02T11:07:32.909Z,1013.92
2023-04-02T11:08:33.130Z,1013.96
2023-04-02T11:09:34.147Z,1013.93
2023-04-02T11:10:33.655Z,1014.02
2023-04-02T11:11:35.604Z,1013.93
2023-04-02T11:12:34.532Z,1013.93
2023-04-02T11:13:34.228Z,1013.94
2023-04-02T11:14:34.451Z,1014.01
2023-04-02T11:15:35.758Z,1014.00
2023-04-02T11:16:37.644Z,1013.93
2023-04-02T11:17:36.536Z,1013.94
2023-04-02T11:18:35.075Z,1013.94
2023-04-02T11:19:36.174Z,1014.05
2023-04-02T11:20:36.137Z,1014.01
2023-04-02T11:21:40.025Z,1014.07
2023-04-02T11:22:37.841Z,1014.01
2023-04-02T11:23:36.003Z,1014.08
2023-04-02T11:24:36.208Z,1014.06
2023-04-02T11:25:36.808Z,1014.10
2023-04-02T11:26:36.567Z,1014.03
2023-04-02T11:27:38.611Z,1014.09
2023-04-02T11:28:36.891Z,1014.15
2023-04-02T11:29:37.610Z,1014.15
2023-04-02T11:30:38.051Z,1014.14
2023-04-02T11:31:37.731Z,1014.10
2023-04-02T11:32:37.772Z,1014.26
2023-04-02T11:33:41.252Z,1014.19
2023-04-02T11:34:39.062Z,1014.25
2023-04-02T11:35:38.596Z,1014.32
2023-04-02T11:36:40.167Z,1014.29
2023-04-02T11:37:40.613Z,1014.30
2023-04-02T11:38:39.647Z,1014.36
2023-04-02T11:39:39.053Z,1014.39
2023-04-02T11:40:39.289Z,1014.43
2023-04-02T11:41:40.158Z,1014.41
2023-04-02T11:42:39.595Z,1014.48
2023-04-02T11:43:39.829Z,1014.46
2023-04-02T11:44:40.612Z,1014.58
2023-04-02T11:45:51.958Z,1014.56
2023-04-02T11:46:42.400Z,1014.45
2023-04-02T11:47:40.485Z,1014.54
2023-04-02T11:48:41.178Z,1014.50
2023-04-02T11:49:40.842Z,1014.66
2023-04-02T11:50:40.954Z,1014.62
2023-04-02T11:51:41.203Z,1014.60
2023-04-02T11:52:42.133Z,1014.62
2023-04-02T11:53:42.131Z,1014.62
2023-04-02T11:54:41.664Z,1014.65
2023-04-02T11:55:41.874Z,1014.65
2023-04-02T11:56:42.072Z,1014.63
2023-04-02T11:57:42.344Z,1014.67
2023-04-02T11:58:42.421Z,1014.69
2023-04-02T11:59:44.119Z,1014.77
2023-04-02T12:00:42.741Z,1014.66
2023-04-02T12:01:42.924Z,1014.75
2023-04-02T12:02:43.260Z,1014.76
2023-04-02T12:03:44.189Z,1014.84
2023-04-02T12:04:43.699Z,1014.87
2023-04-02T12:05:43.870Z,1014.96
2023-04-02T12:06:43.967Z,1014.88
2023-04-02T12:07:44.673Z,1014.91
2023-04-02T12:08:57.049Z,1014.89